| time (UTC) | temp C | wind direction | speed KPH | gust KPH | rain 1hr cm | rain 24hr cm | rain mn cm | humidity % | barometer mb |
| 20260903103215 | 17 | 267 | 6.4 | 9.7 | 0.00 | 0.00 | 0.00 | 22 | 1017.4 |
| 20260903102215 | 17 | 267 | 4.8 | 6.4 | 0.00 | 0.00 | 0.00 | 22 | 1017.4 |
| 20260903101235 | 17 | 260 | 4.8 | 8.0 | 0.00 | 0.00 | 0.00 | 22 | 1017.4 |
| 20260903100215 | 17 | 244 | 6.4 | 8.0 | 0.00 | 0.00 | 0.00 | 22 | 1017.3 |
| 20260903095215 | 17 | 252 | 6.4 | 9.7 | 0.00 | 0.00 | 0.00 | 22 | 1017.3 |
| 20260903094235 | 17 | 254 | 9.7 | 14.5 | 0.00 | 0.00 | 0.00 | 22 | 1017.2 |
| 20260903093215 | 17 | 260 | 6.4 | 9.7 | 0.00 | 0.00 | 0.00 | 23 | 1017.2 |
| 20260903092215 | 17 | 250 | 3.2 | 4.8 | 0.00 | 0.00 | 0.00 | 23 | 1017.1 |
| 20260903091215 | 17 | 250 | 3.2 | 3.2 | 0.00 | 0.00 | 0.00 | 23 | 1017.0 |
| 20260903090215 | 16 | 350 | 3.2 | 4.8 | 0.00 | 0.00 | 0.00 | 24 | 1016.7 |
| 20260903085215 | 16 | 350 | 1.6 | 3.2 | 0.00 | 0.00 | 0.00 | 24 | 1016.6 |
| 20260903084217 | 16 | 350 | 1.6 | 3.2 | 0.00 | 0.00 | 0.00 | 24 | 1016.6 |
| 20260903083215 | 16 | 350 | 1.6 | 4.8 | 0.00 | 0.00 | 0.00 | 24 | 1016.4 |
| 20260903082257 | 17 | 328 | 3.2 | 8.0 | 0.00 | 0.00 | 0.00 | 23 | 1016.7 |
| 20260903081216 | 17 | 252 | 3.2 | 4.8 | 0.00 | 0.00 | 0.00 | 23 | 1016.4 |
| 20260903080237 | 17 | 252 | 1.6 | 4.8 | 0.00 | 0.00 | 0.00 | 23 | 1016.4 |
| 20260903075217 | 17 | 252 | 1.6 | 4.8 | 0.00 | 0.00 | 0.00 | 23 | 1016.4 |
| 20260903074217 | 18 | 252 | 0.0 | 4.8 | 0.00 | 0.00 | 0.00 | 23 | 1016.4 |
| 20260903073217 | 18 | 0.0 | 1.6 | 0.00 | 0.00 | 0.00 | 22 | 1016.4 | |
| 20260903072217 | 18 | 252 | 3.2 | 4.8 | 0.00 | 0.00 | 0.00 | 22 | 1016.5 |
| 20260903071217 | 18 | 252 | 1.6 | 4.8 | 0.00 | 0.00 | 0.00 | 21 | 1016.4 |
| 20260903070217 | 19 | 258 | 4.8 | 6.4 | 0.00 | 0.00 | 0.00 | 21 | 1016.3 |
| 20260903065217 | 19 | 213 | 3.2 | 8.0 | 0.00 | 0.00 | 0.00 | 21 | 1016.5 |
| 20260903064217 | 19 | 195 | 3.2 | 6.4 | 0.00 | 0.00 | 0.00 | 23 | 1016.4 |
| 20260903063217 | 20 | 198 | 1.6 | 3.2 | 0.00 | 0.00 | 0.00 | 22 | 1015.9 |
| 20260903062217 | 20 | 249 | 0.0 | 1.6 | 0.00 | 0.00 | 0.00 | 22 | 1016.1 |
| 20260903061216 | 20 | 249 | 1.6 | 3.2 | 0.00 | 0.00 | 0.00 | 21 | 1015.9 |
| 20260903060217 | 20 | 249 | 0.0 | 1.6 | 0.00 | 0.00 | 0.00 | 21 | 1015.7 |
| 20260903055254 | 20 | 249 | 1.6 | 3.2 | 0.00 | 0.00 | 0.00 | 20 | 1015.7 |
| 20260903054216 | 21 | 249 | 1.6 | 4.8 | 0.00 | 0.00 | 0.00 | 20 | 1015.7 |
| 20260903053216 | 21 | 249 | 3.2 | 8.0 | 0.00 | 0.00 | 0.00 | 18 | 1015.6 |
| 20260903052236 | 21 | 249 | 1.6 | 4.8 | 0.00 | 0.00 | 0.00 | 19 | 1015.6 |
| 20260903051236 | 21 | 256 | 1.6 | 3.2 | 0.00 | 0.00 | 0.00 | 19 | 1016.0 |
| 20260903050216 | 21 | 256 | 3.2 | 8.0 | 0.00 | 0.00 | 0.00 | 18 | 1016.0 |
| 20260903045216 | 21 | 242 | 1.6 | 4.8 | 0.00 | 0.00 | 0.00 | 18 | 1016.1 |
| 20260903044215 | 22 | 265 | 4.8 | 6.4 | 0.00 | 0.00 | 0.00 | 18 | 1016.2 |
| 20260903043216 | 22 | 258 | 6.4 | 11.3 | 0.00 | 0.00 | 0.00 | 17 | 1016.0 |
| 20260903042215 | 22 | 234 | 6.4 | 16.1 | 0.00 | 0.00 | 0.00 | 16 | 1016.0 |
| 20260903041215 | 22 | 258 | 11.3 | 17.7 | 0.00 | 0.00 | 0.00 | 16 | 1015.8 |
| 20260903040215 | 22 | 242 | 9.7 | 16.1 | 0.00 | 0.00 | 0.00 | 16 | 1015.5 |
| 20260903035215 | 22 | 249 | 4.8 | 9.7 | 0.00 | 0.00 | 0.00 | 17 | 1015.4 |
| 20260903034216 | 22 | 200 | 3.2 | 8.0 | 0.00 | 0.00 | 0.00 | 18 | 1015.4 |
| 20260903033215 | 23 | 259 | 1.6 | 4.8 | 0.00 | 0.00 | 0.00 | 17 | 1015.0 |
| 20260903032216 | 23 | 262 | 3.2 | 6.4 | 0.00 | 0.00 | 0.00 | 17 | 1015.1 |
| 20260903031215 | 23 | 230 | 12.9 | 16.1 | 0.00 | 0.00 | 0.00 | 15 | 1014.8 |
| 20260903030236 | 23 | 251 | 4.8 | 8.0 | 0.00 | 0.00 | 0.00 | 17 | 1015.2 |
| 20260903025215 | 23 | 236 | 6.4 | 9.7 | 0.00 | 0.00 | 0.00 | 16 | 1015.2 |
| 20260903024215 | 23 | 227 | 1.6 | 3.2 | 0.00 | 0.00 | 0.00 | 16 | 1015.4 |
| 20260903023215 | 23 | 178 | 4.8 | 9.7 | 0.00 | 0.00 | 0.00 | 16 | 1015.0 |
| 20260903022235 | 24 | 234 | 3.2 | 6.4 | 0.00 | 0.00 | 0.00 | 15 | 1015.0 |
| 20260903021215 | 24 | 191 | 1.6 | 4.8 | 0.00 | 0.00 | 0.00 | 15 | 1015.1 |
| 20260903020215 | 25 | 190 | 4.8 | 11.3 | 0.00 | 0.00 | 0.00 | 15 | 1014.8 |
| 20260903015215 | 25 | 184 | 4.8 | 9.7 | 0.00 | 0.00 | 0.00 | 15 | 1015.4 |
| 20260903014255 | 25 | 191 | 8.0 | 12.9 | 0.00 | 0.00 | 0.00 | 15 | 1015.4 |
| 20260903013215 | 25 | 192 | 9.7 | 20.9 | 0.00 | 0.00 | 0.00 | 15 | 1015.3 |
| 20260903012215 | 26 | 200 | 14.5 | 20.9 | 0.00 | 0.00 | 0.00 | 14 | 1015.8 |
| 20260903011215 | 26 | 212 | 12.9 | 20.9 | 0.00 | 0.00 | 0.00 | 15 | 1015.8 |
| 20260903010215 | 26 | 204 | 14.5 | 24.1 | 0.00 | 0.00 | 0.00 | 14 | 1015.5 |
| 20260903005235 | 26 | 196 | 16.1 | 22.5 | 0.00 | 0.00 | 0.00 | 14 | 1015.6 |
| 20260903004215 | 26 | 179 | 9.7 | 16.1 | 0.00 | 0.00 | 0.00 | 15 | 1015.7 |
| 20260903003215 | 26 | 203 | 12.9 | 20.9 | 0.00 | 0.00 | 0.00 | 15 | 1015.4 |
| 20260903002255 | 26 | 202 | 19.3 | 29.0 | 0.00 | 0.00 | 0.00 | 15 | 1015.4 |
| 20260903001215 | 26 | 190 | 17.7 | 29.0 | 0.00 | 0.00 | 0.00 | 14 | 1015.5 |
| 20260903000215 | 27 | 211 | 19.3 | 37.0 | 0.00 | 0.00 | 0.00 | 13 | 1015.5 |
| 20260902235215 | 27 | 222 | 19.3 | 35.4 | 0.00 | 0.00 | 0.00 | 14 | 1015.7 |
| 20260902234215 | 27 | 204 | 19.3 | 41.8 | 0.00 | 0.00 | 0.00 | 15 | 1015.9 |
| 20260902233215 | 27 | 208 | 17.7 | 29.0 | 0.00 | 0.00 | 0.00 | 15 | 1016.0 |
| 20260902232217 | 26 | 199 | 16.1 | 24.1 | 0.00 | 0.00 | 0.00 | 18 | 1016.2 |
| 20260902231217 | 26 | 194 | 22.5 | 32.2 | 0.00 | 0.00 | 0.00 | 16 | 1016.2 |
| 20260902230217 | 26 | 199 | 12.9 | 24.1 | 0.00 | 0.00 | 0.00 | 16 | 1016.3 |
| 20260902225217 | 27 | 233 | 25.7 | 32.2 | 0.00 | 0.00 | 0.00 | 15 | 1016.5 |
| 20260902224217 | 26 | 177 | 12.9 | 20.9 | 0.00 | 0.00 | 0.00 | 19 | 1016.4 |
| 20260902223237 | 27 | 188 | 16.1 | 29.0 | 0.00 | 0.00 | 0.00 | 18 | 1016.3 |
| 20260902222237 | 27 | 217 | 17.7 | 27.4 | 0.00 | 0.00 | 0.00 | 17 | 1016.6 |
| 20260902221217 | 27 | 210 | 19.3 | 32.2 | 0.00 | 0.00 | 0.00 | 18 | 1016.6 |
| 20260902220217 | 27 | 212 | 17.7 | 30.6 | 0.00 | 0.00 | 0.00 | 18 | 1016.6 |
| 20260902215217 | 26 | 187 | 19.3 | 35.4 | 0.00 | 0.00 | 0.00 | 20 | 1016.5 |
| 20260902214216 | 26 | 224 | 20.9 | 33.8 | 0.00 | 0.00 | 0.00 | 20 | 1016.7 |
| 20260902213217 | 26 | 232 | 30.6 | 40.2 | 0.00 | 0.00 | 0.00 | 21 | 1016.6 |
| 20260902212216 | 26 | 224 | 17.7 | 27.4 | 0.00 | 0.00 | 0.00 | 21 | 1016.7 |
| 20260902211216 | 27 | 196 | 25.7 | 40.2 | 0.00 | 0.00 | 0.00 | 23 | 1016.8 |
| 20260902210217 | 26 | 201 | 24.1 | 37.0 | 0.00 | 0.00 | 0.00 | 20 | 1016.7 |
| 20260902205216 | 27 | 185 | 22.5 | 37.0 | 0.00 | 0.00 | 0.00 | 22 | 1017.1 |
| 20260902204216 | 27 | 194 | 19.3 | 35.4 | 0.00 | 0.00 | 0.00 | 22 | 1016.8 |
| 20260902203216 | 26 | 196 | 25.7 | 38.6 | 0.00 | 0.00 | 0.00 | 24 | 1017.3 |
| 20260902202216 | 26 | 226 | 19.3 | 40.2 | 0.00 | 0.00 | 0.00 | 25 | 1017.4 |
| 20260902201216 | 26 | 185 | 20.9 | 38.6 | 0.00 | 0.00 | 0.00 | 25 | 1017.3 |
| 20260902200216 | 26 | 217 | 12.9 | 33.8 | 0.00 | 0.00 | 0.00 | 26 | 1017.7 |
| 20260902195216 | 26 | 181 | 22.5 | 35.4 | 0.00 | 0.00 | 0.00 | 26 | 1017.9 |
| 20260902194216 | 25 | 171 | 11.3 | 20.9 | 0.00 | 0.00 | 0.00 | 28 | 1017.7 |
| 20260902193216 | 26 | 174 | 14.5 | 25.7 | 0.00 | 0.00 | 0.00 | 26 | 1017.9 |
| 20260902192216 | 26 | 212 | 19.3 | 41.8 | 0.00 | 0.00 | 0.00 | 27 | 1018.0 |
| 20260902191216 | 25 | 218 | 17.7 | 29.0 | 0.00 | 0.00 | 0.00 | 25 | 1018.0 |
| 20260902190216 | 25 | 201 | 17.7 | 30.6 | 0.00 | 0.00 | 0.00 | 28 | 1017.9 |
| 20260902185216 | 25 | 196 | 14.5 | 22.5 | 0.00 | 0.00 | 0.00 | 29 | 1017.9 |
| 20260902184216 | 25 | 233 | 20.9 | 37.0 | 0.00 | 0.00 | 0.00 | 29 | 1018.1 |
| 20260902183216 | 25 | 218 | 12.9 | 27.4 | 0.00 | 0.00 | 0.00 | 32 | 1018.6 |
| 20260902182316 | 25 | 206 | 19.3 | 32.2 | 0.00 | 0.00 | 0.00 | 32 | 1018.9 |
| 20260902181216 | 24 | 218 | 27.4 | 41.8 | 0.00 | 0.00 | 0.00 | 31 | 1018.7 |
| 20260902180217 | 23 | 208 | 16.1 | 35.4 | 0.00 | 0.00 | 0.00 | 31 | 1018.5 |
| 20260902175216 | 24 | 205 | 22.5 | 37.0 | 0.00 | 0.00 | 0.00 | 32 | 1018.8 |
| 20260902174216 | 23 | 210 | 24.1 | 38.6 | 0.00 | 0.00 | 0.00 | 34 | 1018.9 |
| 20260902173216 | 24 | 213 | 19.3 | 38.6 | 0.00 | 0.00 | 0.00 | 33 | 1018.9 |
| 20260902172216 | 23 | 229 | 30.6 | 45.1 | 0.00 | 0.00 | 0.00 | 35 | 1019.0 |
| 20260902171236 | 23 | 202 | 17.7 | 33.8 | 0.00 | 0.00 | 0.00 | 35 | 1018.9 |
| 20260902170216 | 24 | 217 | 22.5 | 35.4 | 0.00 | 0.00 | 0.00 | 37 | 1019.2 |
| 20260902165216 | 24 | 202 | 25.7 | 41.8 | 0.00 | 0.00 | 0.00 | 37 | 1019.6 |
| 20260902164216 | 23 | 196 | 22.5 | 33.8 | 0.00 | 0.00 | 0.00 | 38 | 1019.4 |
| 20260902163216 | 23 | 198 | 14.5 | 30.6 | 0.00 | 0.00 | 0.00 | 39 | 1019.4 |
| 20260902162216 | 22 | 203 | 14.5 | 24.1 | 0.00 | 0.00 | 0.00 | 39 | 1019.3 |
| 20260902161216 | 23 | 194 | 20.9 | 33.8 | 0.00 | 0.00 | 0.00 | 39 | 1019.5 |
| 20260902160216 | 22 | 197 | 19.3 | 30.6 | 0.00 | 0.00 | 0.00 | 39 | 1019.3 |
| 20260902155216 | 22 | 188 | 29.0 | 41.8 | 0.00 | 0.00 | 0.00 | 40 | 1019.4 |
| 20260902154236 | 21 | 179 | 16.1 | 27.4 | 0.00 | 0.00 | 0.00 | 47 | 1019.2 |
| 20260902153216 | 21 | 134 | 12.9 | 19.3 | 0.00 | 0.00 | 0.00 | 52 | 1019.6 |
| 20260902152216 | 20 | 176 | 11.3 | 16.1 | 0.00 | 0.00 | 0.00 | 54 | 1019.3 |
| 20260902151215 | 20 | 129 | 11.3 | 17.7 | 0.00 | 0.00 | 0.00 | 56 | 1019.4 |
| 20260902150216 | 20 | 150 | 8.0 | 12.9 | 0.00 | 0.00 | 0.00 | 55 | 1019.8 |
| 20260902145216 | 21 | 156 | 17.7 | 29.0 | 0.00 | 0.00 | 0.00 | 43 | 1019.8 |
| 20260902144216 | 21 | 160 | 14.5 | 27.4 | 0.00 | 0.00 | 0.00 | 44 | 1019.6 |
| 20260902143216 | 21 | 164 | 17.7 | 25.7 | 0.00 | 0.00 | 0.00 | 44 | 1019.3 |
| 20260902142216 | 21 | 169 | 11.3 | 20.9 | 0.00 | 0.00 | 0.00 | 44 | 1019.3 |
| 20260902141216 | 21 | 182 | 14.5 | 22.5 | 0.00 | 0.00 | 0.00 | 44 | 1019.1 |
| 20260902140215 | 21 | 178 | 14.5 | 19.3 | 0.00 | 0.00 | 0.00 | 46 | 1019.4 |
| 20260902135216 | 20 | 177 | 8.0 | 20.9 | 0.00 | 0.00 | 0.00 | 47 | 1019.0 |
| 20260902134215 | 20 | 201 | 9.7 | 17.7 | 0.00 | 0.00 | 0.00 | 47 | 1019.0 |
| 20260902133216 | 20 | 176 | 14.5 | 24.1 | 0.00 | 0.00 | 0.00 | 46 | 1019.2 |
| 20260902132236 | 20 | 177 | 9.7 | 19.3 | 0.00 | 0.00 | 0.00 | 46 | 1019.1 |
| 20260902131215 | 20 | 190 | 14.5 | 25.7 | 0.00 | 0.00 | 0.00 | 47 | 1019.2 |
| 20260902130215 | 20 | 181 | 12.9 | 20.9 | 0.00 | 0.00 | 0.00 | 47 | 1019.1 |
| 20260902125216 | 20 | 182 | 14.5 | 29.0 | 0.00 | 0.00 | 0.00 | 47 | 1019.0 |
| 20260902124215 | 20 | 184 | 14.5 | 25.7 | 0.00 | 0.00 | 0.00 | 49 | 1018.8 |
| 20260902123216 | 20 | 183 | 12.9 | 22.5 | 0.00 | 0.00 | 0.00 | 50 | 1018.8 |
| 20260902122215 | 18 | 191 | 6.4 | 12.9 | 0.00 | 0.00 | 0.00 | 54 | 1018.4 |
| 20260902121216 | 18 | 140 | 0.0 | 3.2 | 0.00 | 0.00 | 0.00 | 62 | 1018.2 |
| 20260902120215 | 18 | 43 | 6.4 | 8.0 | 0.00 | 0.00 | 0.00 | 65 | 1018.3 |
| 20260902115235 | 18 | 325 | 1.6 | 6.4 | 0.00 | 0.00 | 0.00 | 64 | 1018.5 |
| 20260902114215 | 18 | 55 | 9.7 | 14.5 | 0.00 | 0.00 | 0.00 | 65 | 1018.5 |
| 20260902113216 | 18 | 37 | 4.8 | 8.0 | 0.00 | 0.00 | 0.00 | 66 | 1018.7 |
| 20260902112215 | 18 | 40 | 6.4 | 9.7 | 0.00 | 0.00 | 0.00 | 64 | 1018.8 |
| 20260902111215 | 18 | 73 | 12.9 | 14.5 | 0.00 | 0.00 | 0.00 | 61 | 1018.9 |
| 20260902110235 | 18 | 158 | 0.0 | 6.4 | 0.00 | 0.00 | 0.00 | 58 | 1019.3 |
| 20260902105215 | 19 | 128 | 4.8 | 9.7 | 0.00 | 0.00 | 0.00 | 55 | 1019.1 |
| 20260902104235 | 19 | 134 | 6.4 | 14.5 | 0.00 | 0.00 | 0.00 | 54 | 1019.1 |